Time;durP1;ratioP1;P1;durP2;ratioP2;P2;SDS_P1;SDS_P2;PMS_P1;PMS_P2;Temp;Humidity;BMP_temperature;BMP_pressure;BME280_temperature;BME280_humidity;BME280_pressure;Samples;Min_cycle;Max_cycle;Signal;HPM_P1;HPM_P2
2022/01/07 00:02:01;;;;;;;4.45;2.53;;;3.30;99.90;;;;;;5060275;28;20044;-79
2022/01/07 00:04:28;;;;;;;2.63;1.75;;;3.30;99.90;;;;;;5034087;28;20399;-79
2022/01/07 00:06:54;;;;;;;4.78;2.40;;;3.30;99.90;;;;;;5048898;28;20502;-77
2022/01/07 00:09:20;;;;;;;7.65;2.90;;;3.40;99.90;;;;;;5030184;28;20052;-77
2022/01/07 00:11:45;;;;;;;3.55;2.47;;;3.40;99.90;;;;;;5044052;28;20052;-78
2022/01/07 00:14:11;;;;;;;8.95;3.03;;;3.40;99.90;;;;;;5035317;28;20045;-78
2022/01/07 00:16:37;;;;;;;4.22;2.50;;;3.50;99.90;;;;;;5050930;28;20136;-78
2022/01/07 00:19:03;;;;;;;2.75;2.10;;;3.40;99.90;;;;;;5031065;28;20048;-76
2022/01/07 00:21:29;;;;;;;2.60;2.05;;;3.40;99.90;;;;;;5051139;28;20356;-79
2022/01/07 00:23:55;;;;;;;9.60;3.20;;;3.40;99.90;;;;;;5043552;28;20090;-78
2022/01/07 00:26:21;;;;;;;5.57;3.28;;;3.30;99.90;;;;;;5047116;28;20048;-78
2022/01/07 00:28:46;;;;;;;4.35;2.15;;;3.40;99.90;;;;;;5053980;28;20048;-77
2022/01/07 00:31:12;;;;;;;6.10;2.90;;;3.30;99.90;;;;;;5051234;28;20052;-79
2022/01/07 00:33:38;;;;;;;3.10;2.15;;;3.40;99.90;;;;;;5042441;28;20123;-78
2022/01/07 00:36:04;;;;;;;4.00;1.80;;;3.30;99.90;;;;;;5051657;28;20163;-79
2022/01/07 00:38:30;;;;;;;4.82;3.00;;;3.30;99.90;;;;;;5050203;28;20103;-78
2022/01/07 00:40:56;;;;;;;10.77;2.63;;;3.30;99.90;;;;;;5027521;28;20041;-81
2022/01/07 00:43:22;;;;;;;3.50;2.38;;;3.20;99.90;;;;;;5051389;28;20514;-79
2022/01/07 00:45:48;;;;;;;3.05;2.53;;;3.20;99.90;;;;;;5049977;28;20046;-78
2022/01/07 00:48:14;;;;;;;4.93;2.63;;;3.10;99.90;;;;;;5032494;28;20522;-77
2022/01/07 00:50:40;;;;;;;3.65;2.13;;;3.10;99.90;;;;;;5056061;28;20124;-79
2022/01/07 00:53:06;;;;;;;;;;;3.00;99.90;;;;;;5045313;28;20120;-78
2022/01/07 00:55:32;;;;;;;2.88;2.53;;;3.00;99.90;;;;;;5050523;28;20031;-77
2022/01/07 00:57:58;;;;;;;5.30;3.78;;;3.00;99.90;;;;;;5043842;28;20048;-76
2022/01/07 01:00:26;;;;;;;9.60;2.95;;;2.90;99.90;;;;;;5034572;28;20052;-79
2022/01/07 01:02:53;;;;;;;6.05;4.13;;;2.90;99.90;;;;;;5050344;28;20049;-79
2022/01/07 01:05:19;;;;;;;3.22;2.38;;;2.90;99.90;;;;;;5049141;28;20386;-78
2022/01/07 01:07:45;;;;;;;;;;;2.80;99.90;;;;;;5042728;28;20487;-76
2022/01/07 01:10:13;;;;;;;4.35;2.53;;;2.80;99.90;;;;;;5029917;28;19916;-80
2022/01/07 01:12:42;;;;;;;3.13;2.92;;;2.70;99.90;;;;;;5057239;28;20060;-78
2022/01/07 01:15:10;;;;;;;5.45;1.77;;;2.90;99.90;;;;;;5033334;28;20040;-77
2022/01/07 01:17:36;;;;;;;3.38;2.63;;;2.70;99.90;;;;;;5044580;28;20129;-77
2022/01/07 01:20:10;;;;;;;10.32;3.75;;;2.60;99.90;;;;;;5027216;28;20043;-76
2022/01/07 01:22:36;;;;;;;5.97;2.70;;;2.60;99.90;;;;;;5024249;28;20034;-79
2022/01/07 01:25:03;;;;;;;5.85;2.90;;;2.60;99.90;;;;;;5050597;28;20093;-78
2022/01/07 01:27:29;;;;;;;7.07;3.30;;;2.60;99.90;;;;;;5048723;28;20041;-79
2022/01/07 01:29:55;;;;;;;6.18;3.42;;;2.50;99.90;;;;;;5049515;28;20106;-79
2022/01/07 01:32:20;;;;;;;13.48;2.83;;;2.60;99.90;;;;;;5044863;28;20056;-77
2022/01/07 01:34:46;;;;;;;4.35;2.88;;;2.50;99.90;;;;;;5044916;28;20124;-78
2022/01/07 01:37:12;;;;;;;6.32;2.63;;;2.50;99.90;;;;;;5049904;28;20045;-80
2022/01/07 01:39:38;;;;;;;2.17;1.98;;;2.50;99.90;;;;;;5033389;28;20052;-77
2022/01/07 01:42:05;;;;;;;3.47;2.53;;;2.50;99.90;;;;;;5052673;28;20033;-77
2022/01/07 01:44:31;;;;;;;3.53;2.72;;;2.50;99.90;;;;;;5033787;28;20083;-76
2022/01/07 01:46:58;;;;;;;4.18;2.92;;;2.40;99.90;;;;;;5050471;28;20036;-79
2022/01/07 01:49:24;;;;;;;4.55;3.35;;;2.40;99.90;;;;;;5049670;28;20163;-80
2022/01/07 01:51:50;;;;;;;;;;;2.40;99.90;;;;;;5047580;28;20140;-78
2022/01/07 01:54:17;;;;;;;3.80;3.17;;;2.30;99.90;;;;;;5047171;28;20015;-78
2022/01/07 01:56:43;;;;;;;6.28;3.22;;;2.30;99.90;;;;;;5020530;28;20487;-77
2022/01/07 01:59:09;;;;;;;;;;;2.20;99.90;;;;;;5049479;28;20056;-80
2022/01/07 02:01:35;;;;;;;4.47;2.45;;;2.20;99.90;;;;;;5047350;28;19917;-77
2022/01/07 02:04:01;;;;;;;1.88;1.77;;;2.20;99.90;;;;;;5057559;28;20506;-77
2022/01/07 02:06:27;;;;;;;;;;;2.20;99.90;;;;;;5052010;28;20045;-80
2022/01/07 02:08:53;;;;;;;5.47;2.72;;;2.30;99.90;;;;;;5049840;28;20430;-78
2022/01/07 02:11:19;;;;;;;3.17;2.00;;;2.20;99.90;;;;;;5050792;28;20363;-78
2022/01/07 02:13:48;;;;;;;3.80;2.65;;;2.20;99.90;;;;;;5045419;28;20056;-78
2022/01/07 02:16:14;;;;;;;;;;;3.70;99.90;;;;;;5034037;28;20478;-81
2022/01/07 02:18:42;;;;;;;3.33;3.03;;;3.20;99.90;;;;;;5048291;28;19931;-79
2022/01/07 02:21:08;;;;;;;4.25;2.47;;;2.40;99.90;;;;;;5066008;28;20044;-79
2022/01/07 02:23:36;;;;;;;3.35;2.70;;;2.20;99.90;;;;;;5046733;28;20142;-79
2022/01/07 02:26:02;;;;;;;2.40;2.13;;;2.20;99.90;;;;;;5031068;28;20034;-80
2022/01/07 02:28:28;;;;;;;4.47;2.92;;;2.20;99.90;;;;;;5022227;28;20052;-79
2022/01/07 02:30:53;;;;;;;3.95;2.85;;;2.20;99.90;;;;;;5044934;28;20100;-77
2022/01/07 02:33:19;;;;;;;3.72;2.53;;;2.20;99.90;;;;;;5066980;28;20406;-78
2022/01/07 02:35:46;;;;;;;4.35;3.22;;;2.20;99.90;;;;;;5039645;28;20462;-78
2022/01/07 02:38:15;;;;;;;4.35;2.63;;;2.20;99.90;;;;;;5018626;28;20061;-79
2022/01/07 02:40:41;;;;;;;3.08;2.25;;;2.20;99.90;;;;;;5054940;28;20529;-77
2022/01/07 02:43:08;;;;;;;3.95;3.63;;;2.20;99.90;;;;;;5037867;28;20037;-81
2022/01/07 02:45:36;;;;;;;6.78;3.92;;;2.20;99.90;;;;;;5033686;28;20541;-81
2022/01/07 02:48:03;;;;;;;7.70;3.75;;;2.20;99.90;;;;;;5051905;28;20040;-81
2022/01/07 02:50:39;;;;;;;5.47;3.22;;;2.20;99.90;;;;;;5052808;28;20446;-82
2022/01/07 02:53:07;;;;;;;6.97;4.32;;;2.20;99.90;;;;;;5036695;28;20397;-78
2022/01/07 02:55:40;;;;;;;3.67;2.67;;;2.20;99.90;;;;;;5051759;28;20047;-79
2022/01/07 02:58:07;;;;;;;6.35;3.88;;;2.20;99.90;;;;;;5054972;28;20047;-80
2022/01/07 03:00:34;;;;;;;2.92;2.60;;;2.40;99.90;;;;;;5055868;28;20045;-81
2022/01/07 03:03:01;;;;;;;4.78;3.17;;;2.30;99.90;;;;;;5055747;28;20376;-79
2022/01/07 03:05:30;;;;;;;7.53;3.40;;;2.30;99.90;;;;;;5058273;28;20040;-77
2022/01/07 03:07:56;;;;;;;3.70;2.35;;;2.30;99.90;;;;;;5057114;28;20037;-80
2022/01/07 03:10:31;;;;;;;2.83;2.58;;;2.30;99.90;;;;;;5047540;28;20045;-78
2022/01/07 03:12:59;;;;;;;4.93;3.20;;;2.20;99.90;;;;;;5027681;28;20590;-78
2022/01/07 03:15:24;;;;;;;3.45;2.55;;;2.20;99.90;;;;;;5049791;28;20045;-83
2022/01/07 03:17:50;;;;;;;5.10;3.28;;;2.20;99.90;;;;;;5057333;28;20447;-81
2022/01/07 03:20:19;;;;;;;4.22;3.55;;;2.20;99.90;;;;;;5039492;28;20051;-79
2022/01/07 03:22:46;;;;;;;6.45;3.00;;;2.30;99.90;;;;;;5053678;28;20475;-80
2022/01/07 03:25:14;;;;;;;5.57;3.42;;;2.20;99.90;;;;;;5054709;28;20403;-80
2022/01/07 03:27:39;;;;;;;5.55;3.10;;;2.30;99.90;;;;;;5053922;28;20429;-81
2022/01/07 03:30:08;;;;;;;4.47;2.78;;;2.30;99.90;;;;;;5057362;28;20037;-78
2022/01/07 03:32:34;;;;;;;4.35;3.17;;;2.30;99.90;;;;;;5047169;28;20124;-79
2022/01/07 03:35:02;;;;;;;5.32;3.90;;;2.20;99.90;;;;;;5036613;28;20099;-79
2022/01/07 03:37:27;;;;;;;4.80;3.00;;;2.20;99.90;;;;;;5036255;28;20132;-79
2022/01/07 03:39:53;;;;;;;5.63;3.75;;;2.30;99.90;;;;;;5049415;28;20131;-78
2022/01/07 03:42:19;;;;;;;5.45;2.83;;;2.30;99.90;;;;;;5033282;28;20033;-78
2022/01/07 03:44:45;;;;;;;5.78;3.83;;;2.30;99.90;;;;;;5050366;28;20488;-77
2022/01/07 03:47:11;;;;;;;2.80;2.60;;;2.30;99.90;;;;;;5056255;28;20625;-78
2022/01/07 03:49:36;;;;;;;5.90;3.40;;;2.30;99.90;;;;;;5072816;28;20045;-78
2022/01/07 03:52:03;;;;;;;4.47;2.95;;;2.30;99.90;;;;;;5035357;28;20060;-80
2022/01/07 03:54:28;;;;;;;3.97;3.35;;;2.30;99.90;;;;;;5050382;28;20037;-79
2022/01/07 03:56:54;;;;;;;6.47;4.20;;;2.30;99.90;;;;;;5047237;28;20040;-78
2022/01/07 03:59:20;;;;;;;8.00;5.05;;;2.30;99.90;;;;;;5034161;28;20079;-78
2022/01/07 04:01:45;;;;;;;4.43;3.35;;;2.30;99.90;;;;;;5052657;28;20037;-79
2022/01/07 04:04:11;;;;;;;6.07;4.07;;;2.30;99.90;;;;;;5047332;28;20045;-76
2022/01/07 04:06:37;;;;;;;3.38;2.15;;;2.40;99.90;;;;;;5053594;28;20395;-78
2022/01/07 04:09:03;;;;;;;4.78;2.83;;;2.40;99.90;;;;;;5012252;28;20082;-78
2022/01/07 04:11:29;;;;;;;8.32;3.67;;;2.30;99.90;;;;;;5052501;28;20118;-77
2022/01/07 04:13:54;;;;;;;4.30;3.33;;;2.40;99.90;;;;;;5028333;28;20635;-76
2022/01/07 04:16:20;;;;;;;6.22;3.90;;;2.40;99.90;;;;;;5035437;28;20044;-77
2022/01/07 04:18:46;;;;;;;5.30;3.55;;;2.30;99.90;;;;;;5026987;28;20079;-79
2022/01/07 04:21:12;;;;;;;3.20;2.95;;;2.40;99.90;;;;;;5041861;28;20094;-78
2022/01/07 04:23:37;;;;;;;6.68;3.65;;;2.40;99.90;;;;;;5042232;28;20520;-76
2022/01/07 04:26:03;;;;;;;3.22;2.67;;;2.40;99.90;;;;;;5050623;28;20033;-74
2022/01/07 04:28:29;;;;;;;3.75;2.47;;;2.40;99.90;;;;;;5031679;28;20035;-77
2022/01/07 04:30:55;;;;;;;5.20;4.70;;;2.40;99.90;;;;;;5030529;28;20455;-76
2022/01/07 04:33:25;;;;;;;7.03;2.63;;;2.80;99.90;;;;;;5048152;28;20059;-79
2022/01/07 04:35:52;;;;;;;3.47;2.83;;;2.40;99.90;;;;;;5048134;28;20056;-79
2022/01/07 04:38:18;;;;;;;5.82;3.00;;;2.60;99.90;;;;;;5050947;28;20410;-77
2022/01/07 04:40:43;;;;;;;6.38;4.40;;;2.50;99.90;;;;;;5025778;28;20051;-76
2022/01/07 04:43:09;;;;;;;6.45;4.05;;;2.50;99.90;;;;;;5029325;28;20041;-77
2022/01/07 04:45:35;;;;;;;;;;;2.50;99.90;;;;;;5050244;28;20043;-75
2022/01/07 04:48:01;;;;;;;8.02;4.47;;;2.50;99.90;;;;;;5047958;28;20278;-80
2022/01/07 04:50:27;;;;;;;6.53;3.65;;;2.50;99.90;;;;;;5048919;28;20497;-76
2022/01/07 04:52:54;;;;;;;7.05;5.22;;;2.60;99.90;;;;;;5040277;28;20087;-79
2022/01/07 04:55:25;;;;;;;4.75;4.25;;;2.60;99.90;;;;;;5062955;28;20076;-78
2022/01/07 04:57:52;;;;;;;3.50;2.45;;;2.60;99.90;;;;;;5047758;28;20057;-77
2022/01/07 05:00:18;;;;;;;;;;;2.60;99.90;;;;;;5048479;28;20053;-80
2022/01/07 05:02:44;;;;;;;7.35;4.40;;;2.60;99.90;;;;;;5051329;28;20007;-78
2022/01/07 05:05:10;;;;;;;4.13;3.72;;;2.60;99.90;;;;;;5050548;28;20124;-76
2022/01/07 05:07:37;;;;;;;7.45;3.42;;;2.60;99.90;;;;;;5040399;28;20445;-78
2022/01/07 05:10:08;;;;;;;6.28;4.18;;;3.60;99.90;;;;;;5049892;28;20486;-78
2022/01/07 05:12:34;;;;;;;9.55;4.28;;;2.70;99.90;;;;;;5034366;28;20063;-79
2022/01/07 05:15:00;;;;;;;5.95;4.05;;;2.70;99.90;;;;;;5051139;28;20041;-80
2022/01/07 05:17:26;;;;;;;4.22;3.30;;;2.70;99.90;;;;;;5042273;28;20049;-78
2022/01/07 05:19:52;;;;;;;4.90;3.58;;;2.70;99.90;;;;;;5042252;28;20384;-79
2022/01/07 05:22:18;;;;;;;4.05;3.13;;;2.70;99.90;;;;;;5058286;28;20052;-76
2022/01/07 05:24:43;;;;;;;4.50;3.80;;;2.80;99.90;;;;;;5041004;28;20037;-79
2022/01/07 05:27:09;;;;;;;7.22;3.95;;;2.80;99.90;;;;;;5053975;28;20041;-77
2022/01/07 05:29:35;;;;;;;6.57;4.55;;;2.80;99.90;;;;;;5017374;28;20048;-79
2022/01/07 05:32:02;;;;;;;;;;;2.80;99.90;;;;;;5043811;28;20127;-79
2022/01/07 05:34:27;;;;;;;8.50;4.53;;;2.80;99.90;;;;;;5032265;28;19916;-77
2022/01/07 05:36:53;;;;;;;11.98;3.75;;;2.90;99.90;;;;;;5051225;28;20033;-77
2022/01/07 05:39:19;;;;;;;4.05;3.33;;;2.90;99.90;;;;;;5048702;28;20057;-78
2022/01/07 05:41:45;;;;;;;6.57;4.95;;;2.90;99.90;;;;;;5044068;28;20041;-79
2022/01/07 05:44:10;;;;;;;5.40;4.78;;;2.90;99.90;;;;;;5046412;28;20039;-76
2022/01/07 05:46:36;;;;;;;5.30;3.75;;;3.00;99.90;;;;;;5016571;28;20453;-77
2022/01/07 05:49:02;;;;;;;4.75;4.28;;;3.00;99.90;;;;;;5053509;28;20052;-77
2022/01/07 05:51:28;;;;;;;7.07;4.78;;;3.00;99.90;;;;;;5073313;28;20059;-75
2022/01/07 05:53:53;;;;;;;10.93;5.30;;;3.40;99.90;;;;;;5050108;28;20091;-78
2022/01/07 05:56:19;;;;;;;4.30;3.50;;;3.00;99.90;;;;;;5046885;28;20038;-77
2022/01/07 05:58:45;;;;;;;5.30;3.97;;;3.20;99.90;;;;;;5045183;28;20441;-77
2022/01/07 06:01:12;;;;;;;4.05;2.88;;;3.00;99.90;;;;;;5046176;28;20076;-77
2022/01/07 06:03:41;;;;;;;4.28;3.53;;;3.00;99.90;;;;;;5023607;28;20380;-78
2022/01/07 06:06:08;;;;;;;8.32;4.78;;;3.00;99.90;;;;;;5047439;28;20116;-77
2022/01/07 06:08:34;;;;;;;5.68;4.53;;;3.10;99.90;;;;;;5046844;28;20033;-77
2022/01/07 06:10:59;;;;;;;;;;;3.20;99.90;;;;;;5035060;28;20045;-77
2022/01/07 06:13:25;;;;;;;5.43;4.38;;;3.10;99.90;;;;;;5032735;28;19942;-80
2022/01/07 06:15:51;;;;;;;6.25;4.05;;;3.00;99.90;;;;;;5031576;28;20483;-75
2022/01/07 06:18:17;;;;;;;4.10;2.92;;;3.30;99.90;;;;;;5049563;28;20885;-79
2022/01/07 06:20:42;;;;;;;;;;;3.10;99.90;;;;;;5046854;28;20067;-77
2022/01/07 06:23:08;;;;;;;4.35;2.67;;;3.10;99.90;;;;;;5047704;28;19921;-76
2022/01/07 06:25:34;;;;;;;6.90;3.97;;;3.10;99.90;;;;;;5047457;28;20394;-79
2022/01/07 06:28:00;;;;;;;7.38;4.78;;;3.00;99.90;;;;;;5028340;28;20175;-77
2022/01/07 06:30:25;;;;;;;3.50;2.85;;;3.10;99.90;;;;;;5052269;28;20045;-78
2022/01/07 06:32:52;;;;;;;4.57;3.72;;;3.10;99.90;;;;;;5027251;28;20041;-76
2022/01/07 06:35:18;;;;;;;12.20;4.78;;;3.10;99.90;;;;;;5028704;28;20052;-79
2022/01/07 06:37:43;;;;;;;4.35;3.10;;;3.10;99.90;;;;;;5046361;28;20474;-77
2022/01/07 06:40:10;;;;;;;6.97;4.35;;;3.10;99.90;;;;;;5075010;28;20060;-78
2022/01/07 06:42:35;;;;;;;;;;;3.10;99.90;;;;;;5049519;28;20044;-77
2022/01/07 06:45:01;;;;;;;5.45;4.32;;;3.10;99.90;;;;;;5049015;28;20385;-77
2022/01/07 06:47:27;;;;;;;3.03;2.47;;;3.10;99.90;;;;;;5049380;28;20041;-77
2022/01/07 06:49:53;;;;;;;5.63;3.35;;;3.10;99.90;;;;;;5057360;28;20056;-76
2022/01/07 06:52:19;;;;;;;8.27;2.95;;;3.10;99.90;;;;;;5025951;28;20043;-77
2022/01/07 06:54:45;;;;;;;4.88;3.83;;;3.10;99.90;;;;;;5036106;28;20041;-75
2022/01/07 06:57:10;;;;;;;6.68;4.43;;;3.10;99.90;;;;;;5009852;28;20099;-75
2022/01/07 06:59:36;;;;;;;6.05;4.22;;;3.20;99.90;;;;;;5048468;28;20053;-77
2022/01/07 07:02:02;;;;;;;7.85;3.15;;;3.20;99.90;;;;;;5051221;28;20526;-77
2022/01/07 07:04:29;;;;;;;4.35;3.05;;;3.10;99.90;;;;;;5043682;28;20068;-76
2022/01/07 07:06:54;;;;;;;2.70;2.33;;;3.10;99.90;;;;;;5049120;28;20045;-78
2022/01/07 07:09:20;;;;;;;;;;;3.10;99.90;;;;;;5030183;28;20123;-76
2022/01/07 07:11:47;;;;;;;5.60;4.50;;;3.10;99.90;;;;;;5062804;28;20016;-75
2022/01/07 07:14:12;;;;;;;;;;;3.10;99.90;;;;;;5049115;28;20053;-77
2022/01/07 07:16:38;;;;;;;4.28;3.53;;;3.20;99.90;;;;;;5052824;28;19917;-78
2022/01/07 07:19:04;;;;;;;;;;;3.20;99.90;;;;;;5052354;28;20091;-76
2022/01/07 07:21:30;;;;;;;5.13;2.58;;;3.20;99.90;;;;;;5060578;28;20286;-76
2022/01/07 07:23:55;;;;;;;9.05;4.57;;;3.20;99.90;;;;;;5048420;28;20037;-75
2022/01/07 07:26:21;;;;;;;6.55;4.57;;;3.20;99.90;;;;;;5034325;28;20064;-77
2022/01/07 07:28:47;;;;;;;6.22;4.20;;;3.30;99.90;;;;;;5071530;28;20032;-75
2022/01/07 07:31:16;;;;;;;5.03;3.45;;;3.30;99.90;;;;;;5035777;28;20053;-78
2022/01/07 07:36:31;;;;;;;7.05;4.07;;;3.30;99.90;;;;;;5035305;28;20426;-77
2022/01/07 07:39:07;;;;;;;6.28;4.13;;;3.30;99.90;;;;;;5028981;28;20073;-77
2022/01/07 07:41:34;;;;;;;7.45;4.10;;;3.40;99.90;;;;;;5051149;28;20707;-75
2022/01/07 07:44:00;;;;;;;6.50;3.88;;;3.40;99.90;;;;;;5052698;28;20072;-75
2022/01/07 07:46:30;;;;;;;5.60;3.70;;;3.50;99.90;;;;;;5035031;28;20075;-76
2022/01/07 07:48:56;;;;;;;4.50;3.55;;;3.50;99.90;;;;;;5045741;28;20038;-80
2022/01/07 07:51:22;;;;;;;10.52;5.95;;;3.50;99.90;;;;;;5039412;28;20281;-75
2022/01/07 07:53:48;;;;;;;8.02;3.72;;;3.50;99.90;;;;;;5056849;28;20056;-75
2022/01/07 07:56:16;;;;;;;5.88;3.67;;;3.40;99.90;;;;;;5031302;28;20053;-77
2022/01/07 07:58:42;;;;;;;6.80;4.00;;;3.50;99.90;;;;;;5032804;28;20053;-75
2022/01/07 08:01:09;;;;;;;7.30;5.57;;;3.50;99.90;;;;;;5050668;28;20541;-77
2022/01/07 08:03:35;;;;;;;7.82;4.97;;;3.50;99.90;;;;;;5036555;28;20115;-75
2022/01/07 08:06:01;;;;;;;5.63;3.22;;;3.50;99.90;;;;;;5032638;28;20470;-78
2022/01/07 08:08:28;;;;;;;7.70;5.88;;;3.60;99.90;;;;;;5034929;28;20036;-75
2022/01/07 08:10:57;;;;;;;;;;;3.70;99.90;;;;;;5034316;28;20434;-76
2022/01/07 08:13:30;;;;;;;6.75;4.13;;;3.70;99.90;;;;;;5042315;28;19968;-77
2022/01/07 08:16:04;;;;;;;6.15;4.85;;;3.70;99.90;;;;;;5047138;28;20056;-80
2022/01/07 08:18:35;;;;;;;11.10;6.18;;;3.70;99.90;;;;;;5034807;28;20048;-80
2022/01/07 08:21:08;;;;;;;4.68;4.22;;;3.80;99.90;;;;;;5049664;28;20041;-77
2022/01/07 08:23:36;;;;;;;19.88;4.65;;;3.80;99.90;;;;;;5039835;28;20045;-79
2022/01/07 08:26:08;;;;;;;10.65;6.20;;;3.90;99.90;;;;;;5046489;28;20037;-78
2022/01/07 08:28:40;;;;;;;7.55;3.92;;;3.90;99.90;;;;;;5041941;28;20076;-78
2022/01/07 08:36:17;;;;;;;10.40;5.65;;;4.00;99.90;;;;;;5034094;28;20045;-76
2022/01/07 08:38:42;;;;;;;;;;;3.90;99.90;;;;;;5050968;28;20114;-75
2022/01/07 08:41:10;;;;;;;9.10;4.18;;;4.00;99.90;;;;;;5047364;28;19925;-77
2022/01/07 08:43:37;;;;;;;7.38;5.38;;;4.00;99.90;;;;;;5041509;28;20044;-78
2022/01/07 08:46:05;;;;;;;8.15;4.65;;;4.10;99.90;;;;;;5054315;28;20081;-76
2022/01/07 08:48:31;;;;;;;8.85;4.93;;;4.20;99.90;;;;;;5050014;28;20041;-77
2022/01/07 08:50:57;;;;;;;14.40;5.88;;;4.10;99.90;;;;;;5036179;28;20053;-76
2022/01/07 08:53:24;;;;;;;10.32;5.43;;;4.10;99.90;;;;;;5050675;28;20074;-75
2022/01/07 08:55:50;;;;;;;14.63;6.72;;;4.70;99.90;;;;;;5029113;28;20391;-80
2022/01/07 08:58:17;;;;;;;10.82;7.15;;;4.20;99.90;;;;;;5032386;28;20056;-79
2022/01/07 09:00:42;;;;;;;9.32;5.22;;;4.20;99.90;;;;;;5044911;28;20048;-77
2022/01/07 09:03:08;;;;;;;4.97;3.85;;;4.30;99.90;;;;;;5047542;28;20383;-79
2022/01/07 09:05:34;;;;;;;8.48;5.00;;;4.30;99.90;;;;;;5048460;28;20033;-78
2022/01/07 09:08:00;;;;;;;13.40;5.13;;;4.30;99.90;;;;;;5030740;28;20476;-77
2022/01/07 09:10:25;;;;;;;13.85;5.68;;;4.30;99.90;;;;;;5048911;28;20056;-77
2022/01/07 09:12:52;;;;;;;12.98;6.55;;;4.30;99.90;;;;;;5047418;28;20045;-79
2022/01/07 09:15:18;;;;;;;8.70;6.22;;;4.50;99.90;;;;;;5052685;28;20048;-77
2022/01/07 09:17:44;;;;;;;5.10;4.07;;;4.40;99.90;;;;;;5031756;28;20118;-78
2022/01/07 09:20:11;;;;;;;8.00;3.75;;;4.80;99.90;;;;;;5052641;28;20045;-78
2022/01/07 09:22:36;;;;;;;15.00;5.95;;;4.40;99.90;;;;;;5029738;28;20099;-81
2022/01/07 09:25:06;;;;;;;7.90;5.57;;;4.50;99.90;;;;;;5041412;28;20037;-78
2022/01/07 09:27:33;;;;;;;8.52;5.95;;;4.50;99.90;;;;;;5030951;28;20516;-80
2022/01/07 09:29:59;;;;;;;8.70;5.30;;;4.60;99.90;;;;;;5053284;28;20045;-80
2022/01/07 09:32:25;;;;;;;7.63;5.68;;;4.60;99.90;;;;;;5017414;28;20045;-80
2022/01/07 09:34:51;;;;;;;9.77;6.43;;;4.60;99.90;;;;;;5045082;28;20091;-80
2022/01/07 09:37:17;;;;;;;6.60;4.95;;;4.60;99.90;;;;;;5048979;28;20072;-77
2022/01/07 09:39:43;;;;;;;7.43;4.68;;;4.60;99.90;;;;;;5039644;28;20083;-76
2022/01/07 09:42:14;;;;;;;9.90;6.43;;;4.60;99.90;;;;;;5019515;28;20048;-78
2022/01/07 09:44:42;;;;;;;9.60;5.88;;;4.70;99.90;;;;;;5036389;28;20033;-76
2022/01/07 09:47:11;;;;;;;8.75;5.45;;;4.80;99.90;;;;;;5033860;28;20398;-77
2022/01/07 09:49:43;;;;;;;8.35;4.97;;;4.70;99.90;;;;;;5029564;28;20041;-80
2022/01/07 09:52:09;;;;;;;6.60;4.70;;;4.80;99.90;;;;;;5048619;28;20040;-79
2022/01/07 09:54:36;;;;;;;;;;;4.70;99.90;;;;;;5035054;28;20483;-77
2022/01/07 09:57:04;;;;;;;9.10;5.57;;;4.70;99.90;;;;;;5034728;28;19923;-77
2022/01/07 09:59:30;;;;;;;8.13;4.53;;;4.60;99.90;;;;;;5030983;28;20051;-78
2022/01/07 10:02:07;;;;;;;7.32;5.25;;;4.60;99.90;;;;;;5027034;28;20033;-79
2022/01/07 10:04:35;;;;;;;12.27;4.47;;;5.30;99.90;;;;;;5044117;28;20076;-77
2022/01/07 10:07:23;;;;;;;6.32;5.20;;;4.50;99.90;;;;;;5057757;28;20067;-76
2022/01/07 10:10:05;;;;;;;9.73;5.38;;;4.50;99.90;;;;;;5050349;28;20040;-79
2022/01/07 10:12:53;;;;;;;6.93;4.80;;;4.50;99.90;;;;;;5050949;28;20040;-76
2022/01/07 10:15:36;;;;;;;8.45;5.25;;;4.60;99.90;;;;;;5051478;28;20045;-77
2022/01/07 10:18:10;;;;;;;4.55;4.05;;;4.60;99.90;;;;;;5048593;28;20235;-79
2022/01/07 10:20:44;;;;;;;8.48;3.70;;;4.60;99.90;;;;;;5051857;28;20120;-78
2022/01/07 10:23:17;;;;;;;3.80;2.95;;;4.60;99.90;;;;;;5051976;28;20033;-77
2022/01/07 10:25:47;;;;;;;2.40;2.20;;;4.60;99.90;;;;;;5037188;28;20036;-75
2022/01/07 10:28:16;;;;;;;4.22;2.53;;;4.50;99.90;;;;;;5034928;28;20427;-78
2022/01/07 10:30:48;;;;;;;4.03;1.58;;;4.60;99.90;;;;;;5038926;28;20068;-76
2022/01/07 10:33:16;;;;;;;1.88;1.63;;;4.50;99.90;;;;;;5030649;28;20049;-77
2022/01/07 10:35:42;;;;;;;1.38;1.05;;;4.50;99.90;;;;;;5063246;28;20195;-80
2022/01/07 10:38:16;;;;;;;7.53;1.55;;;4.50;99.90;;;;;;5050875;28;20061;-77
2022/01/07 10:40:42;;;;;;;1.02;0.82;;;4.50;99.90;;;;;;5028631;28;20118;-77
2022/01/07 10:43:35;;;;;;;1.25;1.15;;;4.40;99.90;;;;;;5041830;28;20036;-79
2022/01/07 10:46:24;;;;;;;1.35;1.15;;;4.40;99.90;;;;;;5048977;28;20098;-78
2022/01/07 10:48:58;;;;;;;1.80;1.10;;;4.40;99.90;;;;;;5051875;28;20037;-76
2022/01/07 10:51:27;;;;;;;1.77;1.67;;;4.60;99.90;;;;;;5050942;28;20070;-79
2022/01/07 10:54:02;;;;;;;2.47;1.45;;;4.60;99.90;;;;;;5051747;28;20505;-77
2022/01/07 10:56:40;;;;;;;2.47;1.42;;;4.70;99.90;;;;;;5033331;28;20057;-81
2022/01/07 10:59:11;;;;;;;1.45;0.80;;;4.70;99.90;;;;;;5053760;28;20049;-80
2022/01/07 11:01:48;;;;;;;3.88;1.30;;;4.70;99.90;;;;;;5068728;28;20048;-80
2022/01/07 11:04:19;;;;;;;1.38;1.15;;;4.70;99.90;;;;;;5036325;28;20037;-76
2022/01/07 11:06:49;;;;;;;2.47;1.63;;;4.70;99.90;;;;;;5036629;28;20398;-77
2022/01/07 11:09:16;;;;;;;2.65;1.20;;;5.00;99.90;;;;;;5019789;28;20037;-75
2022/01/07 11:11:47;;;;;;;1.35;1.17;;;4.70;99.90;;;;;;5046908;28;20364;-79
2022/01/07 11:14:17;;;;;;;3.40;1.48;;;4.80;99.90;;;;;;5034387;28;20068;-78
2022/01/07 11:16:43;;;;;;;0.93;0.93;;;4.70;99.90;;;;;;5035714;28;20381;-77
2022/01/07 11:19:10;;;;;;;0.95;0.90;;;4.70;99.90;;;;;;5037220;28;20066;-75
2022/01/07 11:21:37;;;;;;;0.88;0.88;;;4.70;99.90;;;;;;5036986;28;20080;-79
2022/01/07 11:24:33;;;;;;;3.10;1.05;;;4.60;99.90;;;;;;5034314;28;20041;-78
2022/01/07 11:27:05;;;;;;;1.25;1.15;;;4.60;99.90;;;;;;5073106;28;20049;-78
2022/01/07 11:29:30;;;;;;;1.75;1.10;;;4.60;99.90;;;;;;5047263;28;20038;-79
2022/01/07 11:32:41;;;;;;;1.73;1.40;;;4.50;99.90;;;;;;5071294;28;20090;-80
2022/01/07 11:35:20;;;;;;;1.52;1.30;;;4.60;99.90;;;;;;5034540;28;20486;-80
2022/01/07 11:37:53;;;;;;;1.80;1.50;;;4.60;99.90;;;;;;5054386;28;20053;-76
2022/01/07 11:40:49;;;;;;;1.95;1.25;;;4.70;99.90;;;;;;5041380;28;20124;-77
2022/01/07 11:43:18;;;;;;;1.50;1.35;;;4.70;99.90;;;;;;5040433;28;20500;-81
2022/01/07 11:45:45;;;;;;;3.72;2.30;;;4.80;99.90;;;;;;5072912;28;20074;-77
2022/01/07 11:48:14;;;;;;;5.63;1.80;;;4.80;99.90;;;;;;5054516;28;20050;-77
2022/01/07 11:50:58;;;;;;;5.85;2.47;;;4.90;99.90;;;;;;5070797;28;20051;-78
2022/01/07 11:53:39;;;;;;;6.28;2.38;;;5.00;99.90;;;;;;5065304;28;20057;-78
2022/01/07 11:56:07;;;;;;;2.60;2.30;;;5.00;99.90;;;;;;5055755;28;20052;-79
2022/01/07 11:58:41;;;;;;;6.20;2.90;;;5.10;99.90;;;;;;5061708;28;20048;-77
2022/01/07 12:01:26;;;;;;;3.78;2.72;;;5.10;99.90;;;;;;5051712;28;20045;-76
2022/01/07 12:03:56;;;;;;;3.28;1.98;;;5.10;99.90;;;;;;5059329;28;20468;-77
2022/01/07 12:06:29;;;;;;;4.63;3.08;;;5.20;99.90;;;;;;5049859;28;20049;-79
2022/01/07 12:08:57;;;;;;;7.05;2.65;;;5.20;99.90;;;;;;5055946;28;20033;-78
2022/01/07 12:11:25;;;;;;;3.47;2.55;;;5.20;99.90;;;;;;5054026;28;20060;-78
2022/01/07 12:13:51;;;;;;;6.38;2.25;;;5.30;99.90;;;;;;5050187;28;20041;-79
2022/01/07 12:16:20;;;;;;;3.88;2.47;;;5.40;99.90;;;;;;5045613;28;20403;-79
2022/01/07 12:18:46;;;;;;;3.67;2.33;;;5.50;99.90;;;;;;5052225;28;20045;-77
2022/01/07 12:21:12;;;;;;;6.40;2.90;;;5.70;99.90;;;;;;5065398;28;20059;-77
2022/01/07 12:23:39;;;;;;;;;;;5.70;99.90;;;;;;5019110;28;20041;-78
2022/01/07 12:26:06;;;;;;;2.55;2.20;;;6.10;99.90;;;;;;5047649;28;20366;-79
2022/01/07 12:28:45;;;;;;;4.25;3.40;;;6.10;99.90;;;;;;5034694;28;20090;-80
2022/01/07 12:31:12;;;;;;;3.45;2.47;;;6.20;99.90;;;;;;5051132;28;20049;-77
2022/01/07 12:33:52;;;;;;;8.77;3.45;;;6.30;99.90;;;;;;5052308;28;20037;-79
2022/01/07 12:36:34;;;;;;;5.97;2.72;;;6.40;99.90;;;;;;5046219;28;20072;-74
2022/01/07 12:39:09;;;;;;;6.30;2.47;;;6.40;99.90;;;;;;5073499;28;20088;-78
2022/01/07 12:41:36;;;;;;;5.15;2.92;;;6.30;99.90;;;;;;5047887;28;20091;-77
2022/01/07 12:44:09;;;;;;;4.22;3.10;;;6.20;99.90;;;;;;5035259;28;20086;-77
2022/01/07 12:46:36;;;;;;;4.03;2.65;;;6.10;99.90;;;;;;5051876;28;20478;-76
2022/01/07 12:49:02;;;;;;;4.03;2.50;;;5.90;99.90;;;;;;5049174;28;20029;-78
2022/01/07 12:51:29;;;;;;;7.85;2.58;;;5.90;99.90;;;;;;5045902;28;20049;-77
2022/01/07 12:54:13;;;;;;;4.80;3.00;;;5.90;99.90;;;;;;5046477;28;20045;-77
2022/01/07 12:56:39;;;;;;;2.90;2.63;;;5.90;99.90;;;;;;5052385;28;20033;-81
2022/01/07 12:59:24;;;;;;;;;;;5.80;99.90;;;;;;5049880;28;20048;-80
2022/01/07 13:01:50;;;;;;;2.55;1.65;;;5.80;99.90;;;;;;5033434;28;19927;-77
2022/01/07 13:04:19;;;;;;;2.17;1.90;;;5.70;99.90;;;;;;5037110;28;20045;-78
2022/01/07 13:06:56;;;;;;;2.83;2.03;;;5.60;99.90;;;;;;5054366;28;20079;-79
2022/01/07 13:09:28;;;;;;;3.00;2.03;;;5.40;99.90;;;;;;5050701;28;20041;-78
2022/01/07 13:11:56;;;;;;;2.88;1.17;;;5.20;99.90;;;;;;5052335;28;20048;-80
2022/01/07 13:14:23;;;;;;;2.38;1.50;;;5.10;99.90;;;;;;5050901;28;20063;-82
2022/01/07 13:16:57;;;;;;;2.08;1.45;;;5.00;99.90;;;;;;5048672;28;20059;-78